createdAt,value
2023-01-09T00:00:57.529Z,98906.66
2023-01-09T00:01:59.682Z,98914.59
2023-01-09T00:03:01.975Z,98900.66
2023-01-09T00:04:04.760Z,98906.97
2023-01-09T00:05:08.213Z,98905.31
2023-01-09T00:06:10.461Z,98901.50
2023-01-09T00:07:12.632Z,98900.66
2023-01-09T00:08:15.087Z,98902.06
2023-01-09T00:09:17.299Z,98905.91
2023-01-09T00:10:19.518Z,98896.59
2023-01-09T00:11:21.809Z,98900.97
2023-01-09T00:12:24.068Z,98902.06
2023-01-09T00:13:26.405Z,98894.69
2023-01-09T00:14:28.594Z,98891.09
2023-01-09T00:15:30.773Z,98895.50
2023-01-09T00:16:32.970Z,98891.69
2023-01-09T00:17:35.124Z,98894.16
2023-01-09T00:18:37.446Z,98898.56
2023-01-09T00:19:39.734Z,98888.69
2023-01-09T00:20:41.908Z,98898.56
2023-01-09T00:21:44.070Z,98890.91
2023-01-09T00:22:46.332Z,98885.44
2023-01-09T00:23:48.555Z,98876.13
2023-01-09T00:24:50.766Z,98877.78
2023-01-09T00:26:07.125Z,98873.97
2023-01-09T00:27:09.297Z,98881.09
2023-01-09T00:28:11.507Z,98876.97
2023-01-09T00:29:13.758Z,98876.72
2023-01-09T00:30:16.078Z,98871.22
2023-01-09T00:31:18.952Z,98872.88
2023-01-09T00:32:21.271Z,98876.44
2023-01-09T00:33:28.736Z,98872.88
2023-01-09T00:34:30.891Z,98862.75
2023-01-09T00:35:33.781Z,98872.88
2023-01-09T00:36:36.242Z,98866.31
2023-01-09T00:37:38.422Z,98878.09
2023-01-09T00:38:41.261Z,98870.97
2023-01-09T00:39:43.611Z,98870.16
2023-01-09T00:40:45.809Z,98869.31
2023-01-09T00:41:52.083Z,98864.41
2023-01-09T00:42:56.731Z,98858.09
2023-01-09T00:44:04.676Z,98866.31
2023-01-09T00:45:16.374Z,98858.09
2023-01-09T00:46:22.143Z,98843.59
2023-01-09T00:47:38.513Z,98838.69
2023-01-09T00:48:44.499Z,98846.06
2023-01-09T00:49:48.056Z,98833.22
2023-01-09T00:50:51.081Z,98833.47
2023-01-09T00:51:55.202Z,98831.00
2023-01-09T00:53:03.306Z,98830.72
2023-01-09T00:54:05.647Z,98823.63
2023-01-09T00:55:08.890Z,98829.09
2023-01-09T00:56:15.116Z,98828.25
2023-01-09T00:57:17.452Z,98826.88
2023-01-09T00:58:19.969Z,98829.34
2023-01-09T00:59:22.598Z,98830.44
2023-01-09T01:00:24.819Z,98830.44
2023-01-09T01:01:27.124Z,98824.97
2023-01-09T01:02:29.428Z,98830.44
2023-01-09T01:03:31.865Z,98821.38
2023-01-09T01:04:52.662Z,98825.50
2023-01-09T01:06:13.258Z,98819.22
2023-01-09T01:07:34.083Z,98824.13
2023-01-09T01:08:36.256Z,98817.56
2023-01-09T01:09:38.533Z,98818.66
2023-01-09T01:10:41.079Z,98817.03
2023-01-09T01:11:43.247Z,98810.44
2023-01-09T01:12:46.178Z,98807.72
2023-01-09T01:13:48.713Z,98814.03
2023-01-09T01:14:55.045Z,98812.63
2023-01-09T01:15:57.289Z,98812.91
2023-01-09T01:16:59.476Z,98804.41
2023-01-09T01:18:01.883Z,98812.06
2023-01-09T01:19:06.903Z,98801.09
2023-01-09T01:20:13.130Z,98797.81
2023-01-09T01:21:15.500Z,98797.81
2023-01-09T01:22:17.723Z,98789.63
2023-01-09T01:23:19.912Z,98788.78
2023-01-09T01:24:22.086Z,98786.88
2023-01-09T01:25:24.273Z,98786.63
2023-01-09T01:26:26.461Z,98783.88
2023-01-09T01:27:29.089Z,98786.63
2023-01-09T01:28:31.400Z,98778.66
2023-01-09T01:29:33.648Z,98787.44
2023-01-09T01:30:40.527Z,98782.22
2023-01-09T01:31:42.821Z,98784.97
2023-01-09T01:32:45.102Z,98782.22
2023-01-09T01:33:47.349Z,98783.03
2023-01-09T01:34:49.600Z,98777.56
2023-01-09T01:36:00.113Z,98784.16
2023-01-09T01:37:02.333Z,98780.56
2023-01-09T01:38:04.956Z,98776.16
2023-01-09T01:39:07.130Z,98771.53
2023-01-09T01:40:11.083Z,98772.63
2023-01-09T01:41:13.375Z,98775.09
2023-01-09T01:42:15.986Z,98771.81
2023-01-09T01:43:18.153Z,98768.81
2023-01-09T01:44:59.350Z,98773.19
2023-01-09T01:46:01.590Z,98769.63
2023-01-09T01:47:03.932Z,98763.59
2023-01-09T01:48:11.165Z,98770.69
2023-01-09T01:49:20.341Z,98758.38
2023-01-09T01:50:35.972Z,98765.50
2023-01-09T01:51:44.810Z,98763.59
2023-01-09T01:52:54.711Z,98761.09
2023-01-09T01:54:01.889Z,98752.88
2023-01-09T01:55:08.542Z,98755.63
2023-01-09T01:56:16.650Z,98758.94
2023-01-09T01:57:18.859Z,98752.66
2023-01-09T01:58:21.079Z,98758.13
2023-01-09T01:59:32.084Z,98757.28
2023-01-09T02:00:39.062Z,98751.81
2023-01-09T02:01:45.937Z,98754.53
2023-01-09T02:02:48.474Z,98744.69
2023-01-09T02:03:55.334Z,98751.28
2023-01-09T02:05:00.165Z,98743.88
2023-01-09T02:06:05.056Z,98735.66
2023-01-09T02:07:10.283Z,98740.31
2023-01-09T02:08:12.889Z,98740.06
2023-01-09T02:09:18.103Z,98737.81
2023-01-09T02:10:23.709Z,98739.47
2023-01-09T02:11:26.860Z,98733.19
2023-01-09T02:12:29.067Z,98735.94
2023-01-09T02:13:33.037Z,98729.38
2023-01-09T02:14:35.286Z,98735.66
2023-01-09T02:16:06.827Z,98725.78
2023-01-09T02:17:44.858Z,98723.06
2023-01-09T02:18:54.227Z,98727.44
2023-01-09T02:20:44.777Z,98714.03
2023-01-09T02:22:28.558Z,98722.78
2023-01-09T02:24:02.044Z,98709.09
2023-01-09T02:25:27.947Z,98709.09
2023-01-09T02:26:53.457Z,98706.38
2023-01-09T02:28:07.387Z,98709.09
2023-01-09T02:29:40.529Z,98709.66
2023-01-09T02:31:06.862Z,98704.44
2023-01-09T02:32:44.432Z,98706.09
2023-01-09T02:34:12.405Z,98704.44
2023-01-09T02:35:29.835Z,98697.03
2023-01-09T02:36:53.831Z,98696.22
2023-01-09T02:38:20.575Z,98684.44
2023-01-09T02:39:44.611Z,98682.56
2023-01-09T02:41:05.138Z,98687.19
2023-01-09T02:42:19.819Z,98688.84
2023-01-09T02:43:22.740Z,98686.94
2023-01-09T02:44:27.985Z,98690.75
2023-01-09T02:45:30.257Z,98688.84
2023-01-09T02:46:32.494Z,98688.84
2023-01-09T02:47:40.392Z,98687.75
2023-01-09T02:48:45.214Z,98698.69
2023-01-09T02:49:51.756Z,98693.81
2023-01-09T02:51:32.856Z,98692.69
2023-01-09T02:53:10.416Z,98696.00
2023-01-09T02:54:25.680Z,98684.78
2023-01-09T02:55:33.996Z,98687.53
2023-01-09T02:57:02.478Z,98683.69
2023-01-09T02:58:19.139Z,98697.13
2023-01-09T02:59:25.438Z,98691.63
2023-01-09T03:00:49.432Z,98691.38
2023-01-09T03:02:21.052Z,98694.09
2023-01-09T03:03:54.418Z,98688.41
2023-01-09T03:05:32.149Z,98690.84
2023-01-09T03:06:40.327Z,98688.94
2023-01-09T03:07:49.367Z,98692.47
2023-01-09T03:08:55.588Z,98692.47
2023-01-09T03:10:18.447Z,98691.41
2023-01-09T03:11:22.199Z,98692.25
2023-01-09T03:12:28.518Z,98693.88
2023-01-09T03:13:37.662Z,98690.59
2023-01-09T03:14:45.879Z,98692.25
2023-01-09T03:15:51.367Z,98695.53
2023-01-09T03:17:03.498Z,98690.06
2023-01-09T03:18:09.269Z,98686.22
2023-01-09T03:19:18.302Z,98687.03
2023-01-09T03:20:24.190Z,98683.50
2023-01-09T03:21:27.760Z,98681.56
2023-01-09T03:22:30.028Z,98683.22
2023-01-09T03:23:52.767Z,98674.75
2023-01-09T03:24:55.280Z,98683.53
2023-01-09T03:25:57.525Z,98676.38
2023-01-09T03:27:00.110Z,98679.69
2023-01-09T03:28:08.101Z,98678.03
2023-01-09T03:29:10.610Z,98672.56
2023-01-09T03:30:13.105Z,98675.03
2023-01-09T03:31:17.748Z,98678.03
2023-01-09T03:32:20.205Z,98673.38
2023-01-09T03:33:22.363Z,98669.56
2023-01-09T03:34:24.541Z,98673.13
2023-01-09T03:35:27.293Z,98671.50
2023-01-09T03:36:29.519Z,98678.03
2023-01-09T03:37:31.718Z,98675.31
2023-01-09T03:38:34.306Z,98678.03
2023-01-09T03:39:36.515Z,98665.16
2023-01-09T03:40:38.777Z,98668.75
2023-01-09T03:41:40.945Z,98658.63
2023-01-09T03:42:43.097Z,98674.22
2023-01-09T03:43:45.892Z,98666.53
2023-01-09T03:44:48.132Z,98654.75
2023-01-09T03:45:50.408Z,98663.56
2023-01-09T03:46:52.599Z,98664.34
2023-01-09T03:47:54.876Z,98652.59
2023-01-09T03:48:57.054Z,98656.16
2023-01-09T03:49:59.260Z,98653.41
2023-01-09T03:51:01.570Z,98656.16
2023-01-09T03:52:03.896Z,98661.63
2023-01-09T03:53:06.087Z,98653.41
2023-01-09T03:54:08.306Z,98644.13
2023-01-09T03:55:10.520Z,98651.47
2023-01-09T03:56:21.575Z,98643.03
2023-01-09T03:57:24.387Z,98655.06
2023-01-09T03:58:27.015Z,98646.00
2023-01-09T03:59:29.226Z,98645.78
2023-01-09T04:00:31.705Z,98646.00
2023-01-09T04:01:33.973Z,98649.59
2023-01-09T04:02:36.326Z,98646.84
2023-01-09T04:03:39.734Z,98650.69
2023-01-09T04:04:42.024Z,98653.13
2023-01-09T04:05:46.842Z,98643.28
2023-01-09T04:06:49.020Z,98650.69
2023-01-09T04:07:51.279Z,98644.38
2023-01-09T04:08:53.446Z,98649.88
2023-01-09T04:09:55.937Z,98636.19
2023-01-09T04:10:58.217Z,98637.25
2023-01-09T04:12:00.438Z,98637.00
2023-01-09T04:13:02.590Z,98634.53
2023-01-09T04:14:04.744Z,98637.78
2023-01-09T04:15:07.380Z,98638.06
2023-01-09T04:16:09.624Z,98628.78
2023-01-09T04:17:11.943Z,98635.06
2023-01-09T04:18:14.915Z,98638.06
2023-01-09T04:19:17.121Z,98634.78
2023-01-09T04:20:19.369Z,98630.94
2023-01-09T04:21:21.698Z,98625.47
2023-01-09T04:22:23.905Z,98632.06
2023-01-09T04:23:26.046Z,98624.94
2023-01-09T04:24:28.957Z,98616.72
2023-01-09T04:25:31.391Z,98619.44
2023-01-09T04:26:33.587Z,98622.19
2023-01-09T04:27:38.053Z,98617.81
2023-01-09T04:28:40.256Z,98624.94
2023-01-09T04:29:42.447Z,98618.63
2023-01-09T04:30:45.956Z,98611.25
2023-01-09T04:31:48.160Z,98623.28
2023-01-09T04:32:52.074Z,98624.94
2023-01-09T04:33:54.256Z,98626.00
2023-01-09T04:34:57.840Z,98617.00
2023-01-09T04:36:07.732Z,98620.53
2023-01-09T04:37:10.075Z,98630.69
2023-01-09T04:38:12.271Z,98622.47
2023-01-09T04:39:16.986Z,98623.56
2023-01-09T04:40:19.654Z,98628.19
2023-01-09T04:41:40.332Z,98616.41
2023-01-09T04:42:42.568Z,98618.88
2023-01-09T04:43:44.859Z,98619.44
2023-01-09T04:44:47.028Z,98624.06
2023-01-09T04:45:51.072Z,98624.91
2023-01-09T04:46:54.758Z,98626.56
2023-01-09T04:47:56.903Z,98630.38
2023-01-09T04:49:01.505Z,98631.19
2023-01-09T04:50:03.993Z,98620.25
2023-01-09T04:51:06.176Z,98623.81
2023-01-09T04:52:08.367Z,98620.25
2023-01-09T04:53:13.849Z,98613.13
2023-01-09T04:54:16.371Z,98624.06
2023-01-09T04:55:18.554Z,98617.50
2023-01-09T04:56:20.826Z,98618.59
2023-01-09T04:57:25.963Z,98621.31
2023-01-09T04:58:29.452Z,98614.22
2023-01-09T04:59:31.709Z,98616.13
2023-01-09T05:00:34.007Z,98611.75
2023-01-09T05:01:37.330Z,98610.66
2023-01-09T05:02:40.605Z,98615.31
2023-01-09T05:03:42.886Z,98611.75
2023-01-09T05:04:45.156Z,98606.28
2023-01-09T05:05:47.406Z,98599.97
2023-01-09T05:06:49.695Z,98612.00
2023-01-09T05:07:51.982Z,98608.19
2023-01-09T05:08:57.012Z,98604.06
2023-01-09T05:09:59.486Z,98597.78
2023-01-09T05:11:01.779Z,98593.97
2023-01-09T05:12:04.253Z,98595.56
2023-01-09T05:13:06.456Z,98596.94
2023-01-09T05:14:12.989Z,98594.47
2023-01-09T05:15:15.262Z,98601.88
2023-01-09T05:16:17.771Z,98599.13
2023-01-09T05:17:19.983Z,98601.88
2023-01-09T05:18:22.379Z,98603.78
2023-01-09T05:19:24.587Z,98606.50
2023-01-09T05:20:26.781Z,98609.50
2023-01-09T05:21:32.083Z,98599.66
2023-01-09T05:22:34.313Z,98596.09
2023-01-09T05:23:36.731Z,98599.94
2023-01-09T05:24:41.662Z,98598.03
2023-01-09T05:25:44.371Z,98601.84
2023-01-09T05:26:46.623Z,98596.38
2023-01-09T05:27:48.827Z,98590.91
2023-01-09T05:28:56.545Z,98590.91
2023-01-09T05:29:58.840Z,98585.72
2023-01-09T05:31:01.051Z,98590.06
2023-01-09T05:32:03.624Z,98587.91
2023-01-09T05:33:05.839Z,98588.16
2023-01-09T05:34:08.049Z,98578.31
2023-01-09T05:35:10.355Z,98580.22
2023-01-09T05:36:12.868Z,98573.09
2023-01-09T05:37:15.054Z,98574.75
2023-01-09T05:38:17.452Z,98584.59
2023-01-09T05:39:19.707Z,98573.91
2023-01-09T05:40:24.869Z,98573.09
2023-01-09T05:41:31.247Z,98578.31
2023-01-09T05:42:33.393Z,98578.56
2023-01-09T05:43:35.609Z,98575.00
2023-01-09T05:44:38.280Z,98586.78
2023-01-09T05:45:41.297Z,98582.13
2023-01-09T05:46:43.479Z,98585.94
2023-01-09T05:47:48.603Z,98582.97
2023-01-09T05:48:52.348Z,98589.25
2023-01-09T05:49:56.455Z,98601.00
2023-01-09T05:50:58.671Z,98600.19
2023-01-09T05:52:00.810Z,98595.53
2023-01-09T05:53:03.305Z,98601.00
2023-01-09T05:54:07.594Z,98598.28
2023-01-09T05:55:12.008Z,98594.44
2023-01-09T05:56:14.222Z,98594.44
2023-01-09T05:57:16.657Z,98598.84
2023-01-09T05:58:19.270Z,98591.72
2023-01-09T05:59:21.495Z,98590.91
2023-01-09T06:00:23.866Z,98590.63
2023-01-09T06:01:29.224Z,98588.97
2023-01-09T06:02:39.091Z,98581.63
2023-01-09T06:03:41.394Z,98583.50
2023-01-09T06:04:43.999Z,98587.31
2023-01-09T06:05:46.188Z,98579.13
2023-01-09T06:06:51.180Z,98583.22
2023-01-09T06:07:53.481Z,98584.34
2023-01-09T06:08:55.712Z,98593.38
2023-01-09T06:09:57.859Z,98587.91
2023-01-09T06:11:03.163Z,98578.88
2023-01-09T06:12:08.369Z,98576.94
2023-01-09T06:13:10.624Z,98575.88
2023-01-09T06:14:13.086Z,98587.91
2023-01-09T06:15:18.262Z,98586.81
2023-01-09T06:16:20.579Z,98583.50
2023-01-09T06:17:22.804Z,98584.06
2023-01-09T06:18:32.319Z,98587.91
2023-01-09T06:19:35.321Z,98586.25
2023-01-09T06:20:37.484Z,98589.25
2023-01-09T06:21:39.633Z,98585.44
2023-01-09T06:22:45.454Z,98585.44
2023-01-09T06:23:47.635Z,98582.97
2023-01-09T06:24:49.903Z,98578.31
2023-01-09T06:25:52.123Z,98582.13
2023-01-09T06:26:54.300Z,98587.59
2023-01-09T06:27:56.500Z,98589.25
2023-01-09T06:29:00.920Z,98577.50
2023-01-09T06:30:03.370Z,98582.13
2023-01-09T06:31:05.824Z,98591.19
2023-01-09T06:32:08.099Z,98589.53
2023-01-09T06:33:10.329Z,98586.50
2023-01-09T06:34:13.420Z,98590.06
2023-01-09T06:35:20.512Z,98588.44
2023-01-09T06:36:23.330Z,98592.78
2023-01-09T06:37:28.318Z,98588.16
2023-01-09T06:38:33.141Z,98599.13
2023-01-09T06:39:35.335Z,98601.00
2023-01-09T06:40:37.525Z,98590.34
2023-01-09T06:41:39.821Z,98601.84
2023-01-09T06:42:49.962Z,98603.75
2023-01-09T06:43:52.311Z,98594.72
2023-01-09T06:44:56.787Z,98598.03
2023-01-09T06:45:59.126Z,98600.78
2023-01-09T06:47:01.368Z,98605.41
2023-01-09T06:48:03.766Z,98603.50
2023-01-09T06:49:05.954Z,98599.94
2023-01-09T06:50:09.549Z,98612.25
2023-01-09T06:51:11.769Z,98604.31
2023-01-09T06:52:14.472Z,98605.13
2023-01-09T06:53:19.248Z,98604.03
2023-01-09T06:54:21.791Z,98611.44
2023-01-09T06:55:23.961Z,98606.78
2023-01-09T06:56:26.202Z,98608.72
2023-01-09T06:57:28.373Z,98617.72
2023-01-09T06:58:31.316Z,98623.19
2023-01-09T06:59:33.529Z,98616.06
2023-01-09T07:00:36.135Z,98615.00
2023-01-09T07:01:39.958Z,98611.44
2023-01-09T07:02:42.333Z,98608.72
2023-01-09T07:03:45.070Z,98611.44
2023-01-09T07:04:47.438Z,98612.25
2023-01-09T07:05:49.796Z,98613.09
2023-01-09T07:06:52.059Z,98611.16
2023-01-09T07:07:54.751Z,98603.22
2023-01-09T07:08:56.982Z,98602.97
2023-01-09T07:09:59.374Z,98605.69
2023-01-09T07:11:02.463Z,98609.25
2023-01-09T07:12:05.085Z,98611.97
2023-01-09T07:13:07.332Z,98612.81
2023-01-09T07:14:09.708Z,98618.28
2023-01-09T07:15:15.004Z,98621.03
2023-01-09T07:16:17.261Z,98616.38
2023-01-09T07:17:19.502Z,98619.38
2023-01-09T07:18:21.693Z,98627.59
2023-01-09T07:19:24.067Z,98620.19
2023-01-09T07:20:26.320Z,98617.44
2023-01-09T07:21:28.501Z,98620.19
2023-01-09T07:22:30.905Z,98622.69
2023-01-09T07:23:35.922Z,98615.28
2023-01-09T07:24:38.099Z,98619.09
2023-01-09T07:25:42.713Z,98613.38
2023-01-09T07:26:44.873Z,98617.22
2023-01-09T07:27:47.632Z,98621.56
2023-01-09T07:28:49.788Z,98611.75
2023-01-09T07:29:53.510Z,98616.09
2023-01-09T07:30:55.781Z,98616.09
2023-01-09T07:31:57.984Z,98615.00
2023-01-09T07:33:02.009Z,98610.38
2023-01-09T07:34:08.419Z,98613.13
2023-01-09T07:35:11.442Z,98614.75
2023-01-09T07:36:13.729Z,98622.72
2023-01-09T07:37:15.975Z,98618.31
2023-01-09T07:38:18.190Z,98614.50
2023-01-09T07:39:20.372Z,98629.00
2023-01-09T07:40:22.939Z,98620.78
2023-01-09T07:41:25.093Z,98615.84
2023-01-09T07:42:27.535Z,98627.91
2023-01-09T07:43:33.436Z,98627.06
2023-01-09T07:44:35.606Z,98626.25
2023-01-09T07:45:37.773Z,98623.25
2023-01-09T07:46:40.265Z,98630.66
2023-01-09T07:47:43.747Z,98634.19
2023-01-09T07:48:46.399Z,98634.78
2023-01-09T07:49:48.606Z,98633.94
2023-01-09T07:50:50.767Z,98637.50
2023-01-09T07:51:52.906Z,98632.84
2023-01-09T07:52:55.385Z,98633.94
2023-01-09T07:53:57.548Z,98632.84
2023-01-09T07:54:59.767Z,98637.50
2023-01-09T07:56:02.144Z,98632.84
2023-01-09T07:57:04.390Z,98636.38
2023-01-09T07:58:06.620Z,98630.09
2023-01-09T07:59:08.940Z,98635.59
2023-01-09T08:00:13.552Z,98639.13
2023-01-09T08:01:16.280Z,98637.22
2023-01-09T08:02:21.619Z,98629.84
2023-01-09T08:03:23.974Z,98641.63
2023-01-09T08:04:28.417Z,98638.31
2023-01-09T08:05:30.655Z,98632.56
2023-01-09T08:06:32.908Z,98633.66
2023-01-09T08:07:35.289Z,98631.75
2023-01-09T08:08:37.454Z,98634.50
2023-01-09T08:09:39.717Z,98633.41
2023-01-09T08:10:41.938Z,98633.66
2023-01-09T08:11:44.458Z,98637.22
2023-01-09T08:12:47.996Z,98644.34
2023-01-09T08:13:50.230Z,98647.91
2023-01-09T08:14:52.463Z,98636.16
2023-01-09T08:15:54.736Z,98640.50
2023-01-09T08:16:56.979Z,98642.44
2023-01-09T08:17:59.361Z,98636.69
2023-01-09T08:19:01.657Z,98637.78
2023-01-09T08:20:04.058Z,98638.63
2023-01-09T08:21:06.385Z,98639.44
2023-01-09T08:22:08.577Z,98638.63
2023-01-09T08:23:10.795Z,98630.41
2023-01-09T08:24:13.001Z,98631.50
2023-01-09T08:25:15.469Z,98644.91
2023-01-09T08:26:18.596Z,98651.22
2023-01-09T08:27:20.746Z,98650.38
2023-01-09T08:28:25.992Z,98659.16
2023-01-09T08:29:29.213Z,98658.31
2023-01-09T08:30:32.226Z,98647.13
2023-01-09T08:31:34.460Z,98660.81
2023-01-09T08:32:37.579Z,98662.72
2023-01-09T08:33:40.585Z,98657.22
2023-01-09T08:34:42.863Z,98656.16
2023-01-09T08:35:45.140Z,98663.28
2023-01-09T08:36:47.439Z,98663.00
2023-01-09T08:37:49.663Z,98667.41
2023-01-09T08:38:52.033Z,98660.84
2023-01-09T08:39:54.491Z,98665.47
2023-01-09T08:40:56.778Z,98663.31
2023-01-09T08:42:17.380Z,98661.38
2023-01-09T08:43:37.949Z,98658.38
2023-01-09T08:44:58.721Z,98662.78
2023-01-09T08:46:21.092Z,98665.78
2023-01-09T08:47:24.809Z,98671.84
2023-01-09T08:48:27.011Z,98682.53
2023-01-09T08:49:29.191Z,98675.13
2023-01-09T08:50:31.358Z,98675.13
2023-01-09T08:51:33.550Z,98685.25
2023-01-09T08:52:35.821Z,98679.50
2023-01-09T08:53:43.614Z,98685.53
2023-01-09T08:54:45.818Z,98688.03
2023-01-09T08:55:48.098Z,98692.38
2023-01-09T08:56:50.294Z,98686.91
2023-01-09T08:57:54.015Z,98689.41
2023-01-09T08:58:56.204Z,98689.41
2023-01-09T08:59:58.379Z,98700.91
2023-01-09T09:01:00.555Z,98691.03
2023-01-09T09:02:02.756Z,98686.94
2023-01-09T09:03:05.131Z,98696.53
2023-01-09T09:04:07.350Z,98686.69
2023-01-09T09:05:09.761Z,98687.22
2023-01-09T09:06:11.944Z,98693.56
2023-01-09T09:07:14.358Z,98690.81
2023-01-09T09:08:19.171Z,98688.63
2023-01-09T09:09:21.368Z,98684.78
2023-01-09T09:10:28.085Z,98678.22
2023-01-09T09:11:30.742Z,98683.44
2023-01-09T09:12:32.965Z,98688.63
2023-01-09T09:13:35.144Z,98682.88
2023-01-09T09:14:59.132Z,98682.63
2023-01-09T09:16:01.366Z,98681.53
2023-01-09T09:17:03.579Z,98687.56
2023-01-09T09:18:07.254Z,98693.06
2023-01-09T09:19:09.418Z,98688.94
2023-01-09T09:20:12.252Z,98693.34
2023-01-09T09:21:17.225Z,98696.09
2023-01-09T09:22:20.056Z,98685.13
2023-01-09T09:23:23.389Z,98694.72
2023-01-09T09:24:25.560Z,98692.53
2023-01-09T09:25:28.275Z,98691.44
2023-01-09T09:26:30.480Z,98696.38
2023-01-09T09:27:36.706Z,98698.88
2023-01-09T09:28:39.061Z,98699.69
2023-01-09T09:29:41.212Z,98693.66
2023-01-09T09:30:46.094Z,98701.59
2023-01-09T09:31:49.075Z,98692.56
2023-01-09T09:32:51.309Z,98696.69
2023-01-09T09:33:53.565Z,98696.16
2023-01-09T09:34:58.148Z,98701.91
2023-01-09T09:36:06.536Z,98704.13
2023-01-09T09:37:08.861Z,98697.28
2023-01-09T09:38:11.683Z,98708.50
2023-01-09T09:39:13.939Z,98704.41
2023-01-09T09:40:23.924Z,98704.69
2023-01-09T09:42:20.909Z,98708.53
2023-01-09T09:43:54.232Z,98715.41
2023-01-09T09:45:18.351Z,98715.69
2023-01-09T09:46:28.948Z,98714.06
2023-01-09T09:47:59.039Z,98719.53
2023-01-09T09:49:14.548Z,98716.81
2023-01-09T09:50:29.172Z,98715.16
2023-01-09T09:52:04.088Z,98722.59
2023-01-09T09:53:15.925Z,98725.34
2023-01-09T09:54:30.547Z,98726.72
2023-01-09T09:55:44.859Z,98725.88
2023-01-09T09:56:58.015Z,98728.09
2023-01-09T09:58:07.391Z,98729.47
2023-01-09T09:59:26.847Z,98727.53
2023-01-09T10:00:29.910Z,98725.06
2023-01-09T10:01:46.682Z,98728.91
2023-01-09T10:03:34.658Z,98736.28
2023-01-09T10:04:41.040Z,98736.56
2023-01-09T10:05:48.356Z,98734.91
2023-01-09T10:06:55.109Z,98733.53
2023-01-09T10:08:15.313Z,98744.00
2023-01-09T10:09:43.793Z,98736.84
2023-01-09T10:10:54.113Z,98742.63
2023-01-09T10:12:31.584Z,98737.66
2023-01-09T10:13:52.200Z,98739.59
2023-01-09T10:14:59.953Z,98752.75
2023-01-09T10:16:24.136Z,98748.63
2023-01-09T10:17:49.125Z,98755.22
2023-01-09T10:19:03.203Z,98751.94
2023-01-09T10:20:25.117Z,98754.41
2023-01-09T10:21:34.197Z,98758.53
2023-01-09T10:22:46.362Z,98764.56
2023-01-09T10:24:15.648Z,98771.41
2023-01-09T10:25:56.648Z,98768.13
2023-01-09T10:27:09.901Z,98780.50
2023-01-09T10:28:29.350Z,98776.38
2023-01-09T10:29:46.537Z,98782.38
2023-01-09T10:30:54.245Z,98787.59
2023-01-09T10:32:13.378Z,98779.91
2023-01-09T10:33:22.707Z,98774.13
2023-01-09T10:34:51.665Z,98792.00
2023-01-09T10:36:31.125Z,98779.09
2023-01-09T10:37:40.370Z,98787.88
2023-01-09T10:38:46.994Z,98782.91
2023-01-09T10:39:55.055Z,98786.47
2023-01-09T10:41:04.545Z,98793.63
2023-01-09T10:42:21.946Z,98797.19
2023-01-09T10:43:39.607Z,98800.78
2023-01-09T10:44:53.368Z,98803.25
2023-01-09T10:46:03.344Z,98797.75
2023-01-09T10:47:36.790Z,98804.91
2023-01-09T10:48:44.494Z,98806.53
2023-01-09T10:49:49.810Z,98805.72
2023-01-09T10:50:54.918Z,98809.00
2023-01-09T10:52:03.449Z,98806.25
2023-01-09T10:53:18.201Z,98811.47
2023-01-09T10:54:23.684Z,98807.06
2023-01-09T10:55:48.292Z,98809.25
2023-01-09T10:57:13.182Z,98807.06
2023-01-09T10:58:21.591Z,98812.56
2023-01-09T10:59:24.520Z,98813.94
2023-01-09T11:00:29.579Z,98804.31
2023-01-09T11:01:34.683Z,98806.75
2023-01-09T11:02:42.970Z,98810.06
2023-01-09T11:03:45.265Z,98811.72
2023-01-09T11:04:47.822Z,98818.84
2023-01-09T11:05:55.199Z,98824.09
2023-01-09T11:07:31.195Z,98822.69
2023-01-09T11:08:42.026Z,98825.16
2023-01-09T11:10:08.146Z,98827.34
2023-01-09T11:11:15.165Z,98837.25
2023-01-09T11:12:26.527Z,98831.47
2023-01-09T11:13:33.877Z,98841.88
2023-01-09T11:14:36.447Z,98830.88
2023-01-09T11:15:38.642Z,98836.13
2023-01-09T11:17:03.425Z,98833.09
2023-01-09T11:18:20.740Z,98836.13
2023-01-09T11:19:24.417Z,98830.34
2023-01-09T11:20:29.174Z,98833.91
2023-01-09T11:21:39.603Z,98835.25
2023-01-09T11:22:45.468Z,98825.91
2023-01-09T11:23:50.068Z,98827.56
2023-01-09T11:25:03.674Z,98830.84
2023-01-09T11:26:05.875Z,98828.94
2023-01-09T11:27:14.210Z,98828.34
2023-01-09T11:28:16.417Z,98834.94
2023-01-09T11:29:29.422Z,98845.41
2023-01-09T11:30:36.331Z,98835.22
2023-01-09T11:31:40.588Z,98829.44
2023-01-09T11:32:45.119Z,98829.16
2023-01-09T11:33:50.009Z,98839.06
2023-01-09T11:34:52.343Z,98846.22
2023-01-09T11:36:01.861Z,98837.66
2023-01-09T11:37:10.422Z,98840.41
2023-01-09T11:38:18.261Z,98837.38
2023-01-09T11:39:34.337Z,98842.63
2023-01-09T11:40:48.210Z,98842.34
2023-01-09T11:41:55.920Z,98844.81
2023-01-09T11:43:11.754Z,98838.19
2023-01-09T11:44:15.531Z,98838.19
2023-01-09T11:45:20.661Z,98831.59
2023-01-09T11:46:35.161Z,98829.66
2023-01-09T11:47:43.554Z,98827.72
2023-01-09T11:48:57.600Z,98828.28
2023-01-09T11:50:16.444Z,98823.56
2023-01-09T11:51:29.487Z,98827.69
2023-01-09T11:52:31.687Z,98828.53
2023-01-09T11:53:52.727Z,98818.63
2023-01-09T11:55:03.130Z,98819.16
2023-01-09T11:56:09.492Z,98819.69
2023-01-09T11:57:12.700Z,98824.09
2023-01-09T11:58:17.246Z,98826.84
2023-01-09T11:59:26.613Z,98832.88
2023-01-09T12:00:32.413Z,98830.97
2023-01-09T12:01:53.293Z,98829.03
2023-01-09T12:03:23.989Z,98830.09
2023-01-09T12:04:41.084Z,98832.59
2023-01-09T12:06:08.197Z,98817.72
2023-01-09T12:07:30.569Z,98827.31
2023-01-09T12:08:56.100Z,98831.72
2023-01-09T12:10:23.569Z,98830.34
2023-01-09T12:11:25.744Z,98836.66
2023-01-09T12:12:44.816Z,98825.66
2023-01-09T12:14:02.346Z,98830.03
2023-01-09T12:15:28.671Z,98827.28
2023-01-09T12:16:48.904Z,98828.13
2023-01-09T12:17:51.037Z,98825.09
2023-01-09T12:19:32.517Z,98827.56
2023-01-09T12:20:58.275Z,98833.88
2023-01-09T12:22:26.639Z,98828.09
2023-01-09T12:23:51.203Z,98835.22
2023-01-09T12:25:11.065Z,98825.06
2023-01-09T12:26:28.206Z,98844.03
2023-01-09T12:27:54.405Z,98832.75
2023-01-09T12:29:21.449Z,98831.09
2023-01-09T12:30:51.037Z,98841.00
2023-01-09T12:32:27.367Z,98845.94
2023-01-09T12:33:42.615Z,98852.28
2023-01-09T12:35:20.348Z,98850.31
2023-01-09T12:36:34.001Z,98856.69
2023-01-09T12:37:57.969Z,98859.94
2023-01-09T12:39:29.124Z,98855.28
2023-01-09T12:40:46.242Z,98855.00
2023-01-09T12:41:57.497Z,98861.59
2023-01-09T12:43:14.421Z,98864.09
2023-01-09T12:44:36.022Z,98858.59
2023-01-09T12:45:59.783Z,98863.00
2023-01-09T12:47:17.438Z,98860.25
2023-01-09T12:48:40.392Z,98863.00
2023-01-09T12:49:58.020Z,98859.13
2023-01-09T12:51:16.181Z,98852.78
2023-01-09T12:52:25.394Z,98861.06
2023-01-09T12:53:32.439Z,98863.81
2023-01-09T12:54:53.777Z,98856.69
2023-01-09T12:56:09.515Z,98862.19
2023-01-09T12:57:17.368Z,98860.50
2023-01-09T12:58:32.422Z,98859.66
2023-01-09T12:59:41.543Z,98856.91
2023-01-09T13:00:49.405Z,98861.88
2023-01-09T13:01:53.142Z,98860.22
2023-01-09T13:03:12.412Z,98859.13
2023-01-09T13:04:30.229Z,98856.69
2023-01-09T13:05:44.445Z,98860.53
2023-01-09T13:07:00.652Z,98864.94
2023-01-09T13:08:17.103Z,98868.78
2023-01-09T13:09:47.531Z,98864.94
2023-01-09T13:10:53.312Z,98866.84
2023-01-09T13:12:08.951Z,98869.59
2023-01-09T13:13:17.964Z,98872.63
2023-01-09T13:14:51.396Z,98871.53